sensor_id;sensor_type;location;lat;lon;timestamp;P1;durP1;ratioP1;P2;durP2;ratioP2
8704;SDS011;4389;41.932;25.904;2023-04-03T00:02:08;16.90;;;12.13;;
8704;SDS011;4389;41.932;25.904;2023-04-03T00:04:35;14.70;;;9.43;;
8704;SDS011;4389;41.932;25.904;2023-04-03T00:07:01;10.67;;;7.43;;
8704;SDS011;4389;41.932;25.904;2023-04-03T00:09:28;13.00;;;6.77;;
8704;SDS011;4389;41.932;25.904;2023-04-03T00:11:57;9.53;;;6.40;;
8704;SDS011;4389;41.932;25.904;2023-04-03T00:14:23;7.87;;;4.43;;
8704;SDS011;4389;41.932;25.904;2023-04-03T00:16:50;6.47;;;4.13;;
8704;SDS011;4389;41.932;25.904;2023-04-03T00:19:17;7.50;;;4.20;;
8704;SDS011;4389;41.932;25.904;2023-04-03T00:21:44;4.50;;;3.17;;
8704;SDS011;4389;41.932;25.904;2023-04-03T00:24:11;7.40;;;3.53;;
8704;SDS011;4389;41.932;25.904;2023-04-03T00:26:38;5.33;;;3.37;;
8704;SDS011;4389;41.932;25.904;2023-04-03T00:29:06;5.60;;;3.90;;
8704;SDS011;4389;41.932;25.904;2023-04-03T00:31:33;9.10;;;4.17;;
8704;SDS011;4389;41.932;25.904;2023-04-03T00:34:00;8.07;;;4.00;;
8704;SDS011;4389;41.932;25.904;2023-04-03T00:36:27;5.37;;;3.60;;
8704;SDS011;4389;41.932;25.904;2023-04-03T00:38:54;7.33;;;4.03;;
8704;SDS011;4389;41.932;25.904;2023-04-03T00:41:21;5.93;;;3.73;;
8704;SDS011;4389;41.932;25.904;2023-04-03T00:43:47;5.33;;;3.70;;
8704;SDS011;4389;41.932;25.904;2023-04-03T00:46:16;4.30;;;3.53;;
8704;SDS011;4389;41.932;25.904;2023-04-03T00:48:46;7.03;;;2.97;;
8704;SDS011;4389;41.932;25.904;2023-04-03T00:51:16;5.53;;;3.27;;
8704;SDS011;4389;41.932;25.904;2023-04-03T00:53:46;9.93;;;3.87;;
8704;SDS011;4389;41.932;25.904;2023-04-03T00:56:16;5.73;;;3.37;;
8704;SDS011;4389;41.932;25.904;2023-04-03T00:58:47;5.37;;;3.57;;
8704;SDS011;4389;41.932;25.904;2023-04-03T01:01:20;5.93;;;3.10;;
8704;SDS011;4389;41.932;25.904;2023-04-03T01:03:50;5.90;;;3.73;;
8704;SDS011;4389;41.932;25.904;2023-04-03T01:06:17;15.73;;;4.00;;
8704;SDS011;4389;41.932;25.904;2023-04-03T01:08:49;8.60;;;4.70;;
8704;SDS011;4389;41.932;25.904;2023-04-03T01:11:17;9.83;;;4.80;;
8704;SDS011;4389;41.932;25.904;2023-04-03T01:13:44;6.23;;;4.50;;
8704;SDS011;4389;41.932;25.904;2023-04-03T01:16:11;10.80;;;4.97;;
8704;SDS011;4389;41.932;25.904;2023-04-03T01:18:39;6.63;;;4.97;;
8704;SDS011;4389;41.932;25.904;2023-04-03T01:21:10;6.27;;;4.23;;
8704;SDS011;4389;41.932;25.904;2023-04-03T01:24:09;11.33;;;4.20;;
8704;SDS011;4389;41.932;25.904;2023-04-03T01:26:42;8.87;;;4.23;;
8704;SDS011;4389;41.932;25.904;2023-04-03T01:29:10;6.30;;;4.40;;
8704;SDS011;4389;41.932;25.904;2023-04-03T01:34:24;8.50;;;4.30;;
8704;SDS011;4389;41.932;25.904;2023-04-03T01:36:51;8.30;;;4.57;;
8704;SDS011;4389;41.932;25.904;2023-04-03T01:39:18;6.77;;;4.30;;
8704;SDS011;4389;41.932;25.904;2023-04-03T01:41:46;8.03;;;4.90;;
8704;SDS011;4389;41.932;25.904;2023-04-03T01:44:12;7.10;;;4.70;;
8704;SDS011;4389;41.932;25.904;2023-04-03T01:46:40;7.87;;;4.40;;
8704;SDS011;4389;41.932;25.904;2023-04-03T01:49:09;10.90;;;5.20;;
8704;SDS011;4389;41.932;25.904;2023-04-03T01:51:36;6.40;;;4.93;;
8704;SDS011;4389;41.932;25.904;2023-04-03T01:54:02;7.97;;;5.13;;
8704;SDS011;4389;41.932;25.904;2023-04-03T01:56:29;8.63;;;5.17;;
8704;SDS011;4389;41.932;25.904;2023-04-03T01:58:56;11.17;;;4.47;;
8704;SDS011;4389;41.932;25.904;2023-04-03T02:01:23;11.20;;;4.73;;
8704;SDS011;4389;41.932;25.904;2023-04-03T02:03:51;7.50;;;3.97;;
8704;SDS011;4389;41.932;25.904;2023-04-03T02:06:19;8.20;;;4.00;;
8704;SDS011;4389;41.932;25.904;2023-04-03T02:08:46;5.27;;;3.67;;
8704;SDS011;4389;41.932;25.904;2023-04-03T02:11:12;6.63;;;4.20;;
8704;SDS011;4389;41.932;25.904;2023-04-03T02:13:39;6.17;;;4.13;;
8704;SDS011;4389;41.932;25.904;2023-04-03T02:16:07;10.73;;;5.57;;
8704;SDS011;4389;41.932;25.904;2023-04-03T02:18:35;20.10;;;5.50;;
8704;SDS011;4389;41.932;25.904;2023-04-03T02:21:02;7.73;;;4.87;;
8704;SDS011;4389;41.932;25.904;2023-04-03T02:23:30;6.93;;;5.77;;
8704;SDS011;4389;41.932;25.904;2023-04-03T02:26:04;8.70;;;5.50;;
8704;SDS011;4389;41.932;25.904;2023-04-03T02:28:32;9.23;;;5.57;;
8704;SDS011;4389;41.932;25.904;2023-04-03T02:31:00;6.73;;;5.00;;
8704;SDS011;4389;41.932;25.904;2023-04-03T02:33:27;8.00;;;6.00;;
8704;SDS011;4389;41.932;25.904;2023-04-03T02:35:54;9.27;;;6.07;;
8704;SDS011;4389;41.932;25.904;2023-04-03T02:38:21;10.70;;;7.33;;
8704;SDS011;4389;41.932;25.904;2023-04-03T02:40:50;11.53;;;6.47;;
8704;SDS011;4389;41.932;25.904;2023-04-03T02:43:17;6.53;;;4.30;;
8704;SDS011;4389;41.932;25.904;2023-04-03T02:45:44;8.83;;;5.67;;
8704;SDS011;4389;41.932;25.904;2023-04-03T02:48:11;7.20;;;5.10;;
8704;SDS011;4389;41.932;25.904;2023-04-03T02:50:39;9.33;;;4.73;;
8704;SDS011;4389;41.932;25.904;2023-04-03T02:53:06;7.53;;;4.70;;
8704;SDS011;4389;41.932;25.904;2023-04-03T02:55:33;17.90;;;5.70;;
8704;SDS011;4389;41.932;25.904;2023-04-03T02:58:01;9.40;;;4.63;;
8704;SDS011;4389;41.932;25.904;2023-04-03T03:00:28;12.60;;;6.60;;
8704;SDS011;4389;41.932;25.904;2023-04-03T03:02:55;10.03;;;6.30;;
8704;SDS011;4389;41.932;25.904;2023-04-03T03:05:22;11.27;;;6.37;;
8704;SDS011;4389;41.932;25.904;2023-04-03T03:07:49;7.83;;;5.80;;
8704;SDS011;4389;41.932;25.904;2023-04-03T03:10:16;10.73;;;6.93;;
8704;SDS011;4389;41.932;25.904;2023-04-03T03:12:43;10.27;;;6.30;;
8704;SDS011;4389;41.932;25.904;2023-04-03T03:15:12;6.93;;;5.73;;
8704;SDS011;4389;41.932;25.904;2023-04-03T03:17:38;23.50;;;21.27;;
8704;SDS011;4389;41.932;25.904;2023-04-03T03:20:06;19.27;;;5.10;;
8704;SDS011;4389;41.932;25.904;2023-04-03T03:22:34;9.60;;;6.63;;
8704;SDS011;4389;41.932;25.904;2023-04-03T03:25:01;26.00;;;20.30;;
8704;SDS011;4389;41.932;25.904;2023-04-03T03:27:28;18.63;;;14.57;;
8704;SDS011;4389;41.932;25.904;2023-04-03T03:29:55;6.60;;;4.63;;
8704;SDS011;4389;41.932;25.904;2023-04-03T03:32:23;6.77;;;4.57;;
8704;SDS011;4389;41.932;25.904;2023-04-03T03:34:50;9.77;;;4.70;;
8704;SDS011;4389;41.932;25.904;2023-04-03T03:37:17;11.10;;;7.43;;
8704;SDS011;4389;41.932;25.904;2023-04-03T03:39:44;30.73;;;23.27;;
8704;SDS011;4389;41.932;25.904;2023-04-03T03:42:11;10.70;;;7.20;;
8704;SDS011;4389;41.932;25.904;2023-04-03T03:44:37;13.10;;;8.40;;
8704;SDS011;4389;41.932;25.904;2023-04-03T03:47:04;29.70;;;24.93;;
8704;SDS011;4389;41.932;25.904;2023-04-03T03:49:33;11.47;;;5.67;;
8704;SDS011;4389;41.932;25.904;2023-04-03T03:52:01;7.90;;;3.60;;
8704;SDS011;4389;41.932;25.904;2023-04-03T03:54:28;8.67;;;3.80;;
8704;SDS011;4389;41.932;25.904;2023-04-03T03:56:55;7.83;;;5.27;;
8704;SDS011;4389;41.932;25.904;2023-04-03T03:59:21;96.23;;;85.80;;
8704;SDS011;4389;41.932;25.904;2023-04-03T04:01:48;8.40;;;4.47;;
8704;SDS011;4389;41.932;25.904;2023-04-03T04:04:15;6.30;;;4.20;;
8704;SDS011;4389;41.932;25.904;2023-04-03T04:06:43;13.67;;;4.03;;
8704;SDS011;4389;41.932;25.904;2023-04-03T04:09:10;5.33;;;3.47;;
8704;SDS011;4389;41.932;25.904;2023-04-03T04:11:37;5.87;;;3.70;;
8704;SDS011;4389;41.932;25.904;2023-04-03T04:14:05;6.47;;;4.27;;
8704;SDS011;4389;41.932;25.904;2023-04-03T04:16:32;10.03;;;5.43;;
8704;SDS011;4389;41.932;25.904;2023-04-03T04:18:59;12.50;;;9.20;;
8704;SDS011;4389;41.932;25.904;2023-04-03T04:21:26;12.03;;;6.57;;
8704;SDS011;4389;41.932;25.904;2023-04-03T04:23:54;59.67;;;10.53;;
8704;SDS011;4389;41.932;25.904;2023-04-03T04:26:21;6.97;;;5.17;;
8704;SDS011;4389;41.932;25.904;2023-04-03T04:28:48;11.73;;;5.67;;
8704;SDS011;4389;41.932;25.904;2023-04-03T04:31:15;9.63;;;6.57;;
8704;SDS011;4389;41.932;25.904;2023-04-03T04:33:42;13.10;;;7.90;;
8704;SDS011;4389;41.932;25.904;2023-04-03T04:36:08;20.90;;;12.20;;
8704;SDS011;4389;41.932;25.904;2023-04-03T04:38:35;27.93;;;16.80;;
8704;SDS011;4389;41.932;25.904;2023-04-03T04:41:05;31.93;;;17.47;;
8704;SDS011;4389;41.932;25.904;2023-04-03T04:43:31;30.23;;;16.07;;
8704;SDS011;4389;41.932;25.904;2023-04-03T04:46:02;13.43;;;8.87;;
8704;SDS011;4389;41.932;25.904;2023-04-03T04:48:30;9.87;;;7.03;;
8704;SDS011;4389;41.932;25.904;2023-04-03T04:50:57;7.30;;;6.37;;
8704;SDS011;4389;41.932;25.904;2023-04-03T04:53:24;10.50;;;6.07;;
8704;SDS011;4389;41.932;25.904;2023-04-03T04:55:51;13.23;;;5.80;;
8704;SDS011;4389;41.932;25.904;2023-04-03T04:58:19;9.30;;;5.90;;
8704;SDS011;4389;41.932;25.904;2023-04-03T05:00:46;10.70;;;5.40;;
8704;SDS011;4389;41.932;25.904;2023-04-03T05:03:13;12.40;;;6.43;;
8704;SDS011;4389;41.932;25.904;2023-04-03T05:05:40;13.07;;;6.97;;
8704;SDS011;4389;41.932;25.904;2023-04-03T05:08:07;18.93;;;13.50;;
8704;SDS011;4389;41.932;25.904;2023-04-03T05:10:34;39.20;;;33.37;;
8704;SDS011;4389;41.932;25.904;2023-04-03T05:13:01;152.77;;;121.27;;
8704;SDS011;4389;41.932;25.904;2023-04-03T05:15:29;88.67;;;72.60;;
8704;SDS011;4389;41.932;25.904;2023-04-03T05:17:56;111.97;;;91.53;;
8704;SDS011;4389;41.932;25.904;2023-04-03T05:20:23;112.30;;;85.93;;
8704;SDS011;4389;41.932;25.904;2023-04-03T05:22:51;93.67;;;74.30;;
8704;SDS011;4389;41.932;25.904;2023-04-03T05:25:17;82.63;;;58.70;;
8704;SDS011;4389;41.932;25.904;2023-04-03T05:27:44;88.27;;;73.53;;
8704;SDS011;4389;41.932;25.904;2023-04-03T05:30:11;88.57;;;71.47;;
8704;SDS011;4389;41.932;25.904;2023-04-03T05:32:43;72.73;;;59.37;;
8704;SDS011;4389;41.932;25.904;2023-04-03T05:35:10;76.50;;;54.47;;
8704;SDS011;4389;41.932;25.904;2023-04-03T05:37:37;68.27;;;55.90;;
8704;SDS011;4389;41.932;25.904;2023-04-03T05:40:05;65.97;;;51.27;;
8704;SDS011;4389;41.932;25.904;2023-04-03T05:42:33;68.23;;;45.83;;
8704;SDS011;4389;41.932;25.904;2023-04-03T05:45:00;66.53;;;47.67;;
8704;SDS011;4389;41.932;25.904;2023-04-03T05:47:27;59.23;;;49.10;;
8704;SDS011;4389;41.932;25.904;2023-04-03T05:49:55;50.80;;;41.13;;
8704;SDS011;4389;41.932;25.904;2023-04-03T05:52:23;47.53;;;38.70;;
8704;SDS011;4389;41.932;25.904;2023-04-03T05:54:52;44.90;;;36.23;;
8704;SDS011;4389;41.932;25.904;2023-04-03T05:57:19;44.67;;;36.50;;
8704;SDS011;4389;41.932;25.904;2023-04-03T05:59:47;51.33;;;39.87;;
8704;SDS011;4389;41.932;25.904;2023-04-03T06:02:14;52.50;;;43.83;;
8704;SDS011;4389;41.932;25.904;2023-04-03T06:04:43;57.60;;;51.60;;
8704;SDS011;4389;41.932;25.904;2023-04-03T06:07:11;53.13;;;45.60;;
8704;SDS011;4389;41.932;25.904;2023-04-03T06:09:40;48.70;;;39.53;;
8704;SDS011;4389;41.932;25.904;2023-04-03T06:12:08;50.70;;;37.87;;
8704;SDS011;4389;41.932;25.904;2023-04-03T06:14:34;38.43;;;34.20;;
8704;SDS011;4389;41.932;25.904;2023-04-03T06:17:01;31.90;;;26.83;;
8704;SDS011;4389;41.932;25.904;2023-04-03T06:19:29;41.57;;;23.63;;
8704;SDS011;4389;41.932;25.904;2023-04-03T06:21:56;21.30;;;14.83;;
8704;SDS011;4389;41.932;25.904;2023-04-03T06:24:24;19.50;;;11.13;;
8704;SDS011;4389;41.932;25.904;2023-04-03T06:26:51;23.23;;;10.93;;
8704;SDS011;4389;41.932;25.904;2023-04-03T06:29:18;30.43;;;15.07;;
8704;SDS011;4389;41.932;25.904;2023-04-03T06:31:46;28.73;;;17.83;;
8704;SDS011;4389;41.932;25.904;2023-04-03T06:34:13;27.00;;;21.23;;
8704;SDS011;4389;41.932;25.904;2023-04-03T06:36:42;28.20;;;19.57;;
8704;SDS011;4389;41.932;25.904;2023-04-03T06:39:11;33.20;;;23.07;;
8704;SDS011;4389;41.932;25.904;2023-04-03T06:41:41;37.07;;;20.60;;
8704;SDS011;4389;41.932;25.904;2023-04-03T06:44:08;36.57;;;19.27;;
8704;SDS011;4389;41.932;25.904;2023-04-03T06:46:36;42.20;;;24.83;;
8704;SDS011;4389;41.932;25.904;2023-04-03T06:49:04;30.53;;;18.37;;
8704;SDS011;4389;41.932;25.904;2023-04-03T06:51:32;32.37;;;18.00;;
8704;SDS011;4389;41.932;25.904;2023-04-03T06:54:00;37.87;;;19.73;;
8704;SDS011;4389;41.932;25.904;2023-04-03T06:56:28;34.27;;;24.57;;
8704;SDS011;4389;41.932;25.904;2023-04-03T06:58:56;56.47;;;40.57;;
8704;SDS011;4389;41.932;25.904;2023-04-03T07:01:24;67.23;;;41.17;;
8704;SDS011;4389;41.932;25.904;2023-04-03T07:03:52;40.63;;;27.90;;
8704;SDS011;4389;41.932;25.904;2023-04-03T07:06:20;71.33;;;43.10;;
8704;SDS011;4389;41.932;25.904;2023-04-03T07:08:47;56.77;;;34.27;;
8704;SDS011;4389;41.932;25.904;2023-04-03T07:11:14;56.33;;;32.13;;
8704;SDS011;4389;41.932;25.904;2023-04-03T07:13:42;39.37;;;19.93;;
8704;SDS011;4389;41.932;25.904;2023-04-03T07:16:11;32.30;;;18.97;;
8704;SDS011;4389;41.932;25.904;2023-04-03T07:18:38;24.43;;;15.60;;
8704;SDS011;4389;41.932;25.904;2023-04-03T07:21:05;22.57;;;12.67;;
8704;SDS011;4389;41.932;25.904;2023-04-03T07:23:32;23.83;;;13.27;;
8704;SDS011;4389;41.932;25.904;2023-04-03T07:25:59;37.37;;;15.23;;
8704;SDS011;4389;41.932;25.904;2023-04-03T07:28:27;35.90;;;19.07;;
8704;SDS011;4389;41.932;25.904;2023-04-03T07:30:59;29.23;;;19.83;;
8704;SDS011;4389;41.932;25.904;2023-04-03T07:33:29;34.90;;;17.27;;
8704;SDS011;4389;41.932;25.904;2023-04-03T07:35:56;18.57;;;12.47;;
8704;SDS011;4389;41.932;25.904;2023-04-03T07:38:23;21.87;;;13.67;;
8704;SDS011;4389;41.932;25.904;2023-04-03T07:40:51;20.57;;;13.40;;
8704;SDS011;4389;41.932;25.904;2023-04-03T07:43:19;23.50;;;12.40;;
8704;SDS011;4389;41.932;25.904;2023-04-03T07:45:47;28.77;;;12.33;;
8704;SDS011;4389;41.932;25.904;2023-04-03T07:48:16;14.30;;;7.77;;
8704;SDS011;4389;41.932;25.904;2023-04-03T07:50:45;16.53;;;7.87;;
8704;SDS011;4389;41.932;25.904;2023-04-03T07:53:12;18.27;;;9.13;;
8704;SDS011;4389;41.932;25.904;2023-04-03T07:55:39;9.17;;;6.63;;
8704;SDS011;4389;41.932;25.904;2023-04-03T07:58:09;18.87;;;11.10;;
8704;SDS011;4389;41.932;25.904;2023-04-03T08:00:36;11.43;;;7.67;;
8704;SDS011;4389;41.932;25.904;2023-04-03T08:03:04;13.93;;;7.93;;
8704;SDS011;4389;41.932;25.904;2023-04-03T08:05:31;13.03;;;6.73;;
8704;SDS011;4389;41.932;25.904;2023-04-03T08:08:04;9.90;;;7.57;;
8704;SDS011;4389;41.932;25.904;2023-04-03T08:10:31;17.67;;;8.80;;
8704;SDS011;4389;41.932;25.904;2023-04-03T08:12:58;17.03;;;9.30;;
8704;SDS011;4389;41.932;25.904;2023-04-03T08:15:25;14.80;;;8.23;;
8704;SDS011;4389;41.932;25.904;2023-04-03T08:17:52;9.37;;;6.67;;
8704;SDS011;4389;41.932;25.904;2023-04-03T08:20:19;16.93;;;8.33;;
8704;SDS011;4389;41.932;25.904;2023-04-03T08:22:46;12.97;;;7.63;;
8704;SDS011;4389;41.932;25.904;2023-04-03T08:25:14;11.43;;;7.23;;
8704;SDS011;4389;41.932;25.904;2023-04-03T08:27:42;13.33;;;8.47;;
8704;SDS011;4389;41.932;25.904;2023-04-03T08:30:09;11.03;;;8.00;;
8704;SDS011;4389;41.932;25.904;2023-04-03T08:32:37;11.93;;;8.53;;
8704;SDS011;4389;41.932;25.904;2023-04-03T08:35:04;11.53;;;8.67;;
8704;SDS011;4389;41.932;25.904;2023-04-03T08:37:34;18.30;;;10.63;;
8704;SDS011;4389;41.932;25.904;2023-04-03T08:40:01;17.40;;;10.23;;
8704;SDS011;4389;41.932;25.904;2023-04-03T08:42:34;14.03;;;9.50;;
8704;SDS011;4389;41.932;25.904;2023-04-03T08:45:08;15.17;;;9.07;;
8704;SDS011;4389;41.932;25.904;2023-04-03T08:47:38;20.87;;;10.37;;
8704;SDS011;4389;41.932;25.904;2023-04-03T08:50:12;17.03;;;10.30;;
8704;SDS011;4389;41.932;25.904;2023-04-03T08:52:42;17.23;;;10.67;;
8704;SDS011;4389;41.932;25.904;2023-04-03T08:55:15;23.00;;;9.57;;
8704;SDS011;4389;41.932;25.904;2023-04-03T08:57:52;17.03;;;12.00;;
8704;SDS011;4389;41.932;25.904;2023-04-03T09:00:27;12.70;;;7.43;;
8704;SDS011;4389;41.932;25.904;2023-04-03T09:02:56;17.43;;;8.30;;
8704;SDS011;4389;41.932;25.904;2023-04-03T09:05:29;21.90;;;9.23;;
8704;SDS011;4389;41.932;25.904;2023-04-03T09:08:04;20.63;;;10.73;;
8704;SDS011;4389;41.932;25.904;2023-04-03T09:10:38;23.07;;;10.23;;
8704;SDS011;4389;41.932;25.904;2023-04-03T09:13:10;20.50;;;11.47;;
8704;SDS011;4389;41.932;25.904;2023-04-03T09:15:47;17.40;;;11.33;;
8704;SDS011;4389;41.932;25.904;2023-04-03T09:18:15;19.67;;;10.77;;
8704;SDS011;4389;41.932;25.904;2023-04-03T09:20:46;20.57;;;11.00;;
8704;SDS011;4389;41.932;25.904;2023-04-03T09:23:22;19.53;;;12.13;;
8704;SDS011;4389;41.932;25.904;2023-04-03T09:25:54;18.03;;;11.27;;
8704;SDS011;4389;41.932;25.904;2023-04-03T09:28:28;23.87;;;13.50;;
8704;SDS011;4389;41.932;25.904;2023-04-03T09:30:58;21.27;;;13.23;;
8704;SDS011;4389;41.932;25.904;2023-04-03T09:33:26;21.23;;;13.80;;
8704;SDS011;4389;41.932;25.904;2023-04-03T09:35:55;24.80;;;15.17;;
8704;SDS011;4389;41.932;25.904;2023-04-03T09:38:22;24.27;;;14.23;;
8704;SDS011;4389;41.932;25.904;2023-04-03T09:40:50;25.23;;;18.17;;
8704;SDS011;4389;41.932;25.904;2023-04-03T09:43:30;31.60;;;16.30;;
8704;SDS011;4389;41.932;25.904;2023-04-03T09:48:59;24.13;;;13.60;;
8704;SDS011;4389;41.932;25.904;2023-04-03T09:51:28;25.33;;;15.57;;
8704;SDS011;4389;41.932;25.904;2023-04-03T09:53:56;24.60;;;16.87;;
8704;SDS011;4389;41.932;25.904;2023-04-03T09:56:24;21.00;;;14.50;;
8704;SDS011;4389;41.932;25.904;2023-04-03T09:59:06;29.80;;;16.30;;
8704;SDS011;4389;41.932;25.904;2023-04-03T10:01:41;19.37;;;13.43;;
8704;SDS011;4389;41.932;25.904;2023-04-03T10:04:10;25.33;;;14.63;;
8704;SDS011;4389;41.932;25.904;2023-04-03T10:06:39;28.03;;;16.30;;
8704;SDS011;4389;41.932;25.904;2023-04-03T10:09:16;21.00;;;13.67;;
8704;SDS011;4389;41.932;25.904;2023-04-03T10:11:59;34.83;;;21.17;;
8704;SDS011;4389;41.932;25.904;2023-04-03T10:14:31;25.27;;;17.37;;
8704;SDS011;4389;41.932;25.904;2023-04-03T10:17:03;24.70;;;17.93;;
8704;SDS011;4389;41.932;25.904;2023-04-03T10:19:41;28.13;;;17.23;;
8704;SDS011;4389;41.932;25.904;2023-04-03T10:22:16;22.57;;;17.77;;
8704;SDS011;4389;41.932;25.904;2023-04-03T10:27:33;25.90;;;16.63;;
8704;SDS011;4389;41.932;25.904;2023-04-03T10:30:14;24.40;;;16.83;;
8704;SDS011;4389;41.932;25.904;2023-04-03T10:32:57;22.90;;;17.67;;
8704;SDS011;4389;41.932;25.904;2023-04-03T10:35:36;20.00;;;14.70;;
8704;SDS011;4389;41.932;25.904;2023-04-03T10:38:14;25.03;;;15.70;;
8704;SDS011;4389;41.932;25.904;2023-04-03T10:40:47;33.57;;;21.20;;
8704;SDS011;4389;41.932;25.904;2023-04-03T10:43:21;24.97;;;17.93;;
8704;SDS011;4389;41.932;25.904;2023-04-03T10:45:59;24.13;;;16.57;;
8704;SDS011;4389;41.932;25.904;2023-04-03T10:48:40;23.40;;;14.77;;
8704;SDS011;4389;41.932;25.904;2023-04-03T10:51:24;24.00;;;17.53;;
8704;SDS011;4389;41.932;25.904;2023-04-03T10:53:56;22.60;;;15.27;;
8704;SDS011;4389;41.932;25.904;2023-04-03T10:56:31;22.90;;;16.50;;
8704;SDS011;4389;41.932;25.904;2023-04-03T10:59:02;23.77;;;16.17;;
8704;SDS011;4389;41.932;25.904;2023-04-03T11:01:46;21.10;;;15.73;;
8704;SDS011;4389;41.932;25.904;2023-04-03T11:04:17;23.57;;;15.80;;
8704;SDS011;4389;41.932;25.904;2023-04-03T11:06:48;24.70;;;15.90;;
8704;SDS011;4389;41.932;25.904;2023-04-03T11:09:23;31.23;;;17.20;;
8704;SDS011;4389;41.932;25.904;2023-04-03T11:11:53;29.10;;;17.73;;
8704;SDS011;4389;41.932;25.904;2023-04-03T11:14:24;28.57;;;20.57;;
8704;SDS011;4389;41.932;25.904;2023-04-03T11:16:59;29.20;;;18.77;;
8704;SDS011;4389;41.932;25.904;2023-04-03T11:19:34;28.83;;;19.40;;
8704;SDS011;4389;41.932;25.904;2023-04-03T11:22:08;23.37;;;16.87;;
8704;SDS011;4389;41.932;25.904;2023-04-03T11:24:41;26.83;;;16.00;;
8704;SDS011;4389;41.932;25.904;2023-04-03T11:27:11;27.00;;;17.53;;
8704;SDS011;4389;41.932;25.904;2023-04-03T11:29:44;25.93;;;15.40;;
8704;SDS011;4389;41.932;25.904;2023-04-03T11:35:25;20.97;;;15.60;;
8704;SDS011;4389;41.932;25.904;2023-04-03T11:37:54;23.00;;;18.00;;
8704;SDS011;4389;41.932;25.904;2023-04-03T11:40:23;19.30;;;14.67;;
8704;SDS011;4389;41.932;25.904;2023-04-03T11:42:52;22.30;;;15.27;;
8704;SDS011;4389;41.932;25.904;2023-04-03T11:45:24;24.27;;;16.60;;
8704;SDS011;4389;41.932;25.904;2023-04-03T11:47:58;23.60;;;16.07;;
8704;SDS011;4389;41.932;25.904;2023-04-03T11:50:42;28.13;;;17.60;;
8704;SDS011;4389;41.932;25.904;2023-04-03T11:56:01;27.90;;;16.33;;
8704;SDS011;4389;41.932;25.904;2023-04-03T11:59:14;22.67;;;13.40;;
8704;SDS011;4389;41.932;25.904;2023-04-03T12:01:45;21.90;;;13.10;;
8704;SDS011;4389;41.932;25.904;2023-04-03T12:04:14;19.67;;;11.70;;
8704;SDS011;4389;41.932;25.904;2023-04-03T12:12:38;17.73;;;10.63;;
8704;SDS011;4389;41.932;25.904;2023-04-03T12:15:17;17.33;;;9.20;;
8704;SDS011;4389;41.932;25.904;2023-04-03T12:21:19;17.63;;;12.40;;
8704;SDS011;4389;41.932;25.904;2023-04-03T12:26:51;25.83;;;12.70;;
8704;SDS011;4389;41.932;25.904;2023-04-03T12:29:33;16.73;;;12.90;;
8704;SDS011;4389;41.932;25.904;2023-04-03T12:32:08;18.07;;;12.70;;
8704;SDS011;4389;41.932;25.904;2023-04-03T12:34:49;16.53;;;12.40;;
8704;SDS011;4389;41.932;25.904;2023-04-03T12:37:35;24.70;;;14.73;;
8704;SDS011;4389;41.932;25.904;2023-04-03T12:40:10;17.20;;;12.50;;
8704;SDS011;4389;41.932;25.904;2023-04-03T12:43:07;26.67;;;18.10;;
8704;SDS011;4389;41.932;25.904;2023-04-03T12:45:46;23.60;;;13.20;;
8704;SDS011;4389;41.932;25.904;2023-04-03T12:48:22;19.93;;;13.70;;
8704;SDS011;4389;41.932;25.904;2023-04-03T12:50:52;25.83;;;12.43;;
8704;SDS011;4389;41.932;25.904;2023-04-03T12:53:23;30.17;;;12.97;;
8704;SDS011;4389;41.932;25.904;2023-04-03T12:55:55;24.13;;;12.67;;
8704;SDS011;4389;41.932;25.904;2023-04-03T12:58:23;21.97;;;11.53;;
8704;SDS011;4389;41.932;25.904;2023-04-03T13:01:01;34.30;;;12.23;;
8704;SDS011;4389;41.932;25.904;2023-04-03T13:03:29;25.13;;;12.03;;
8704;SDS011;4389;41.932;25.904;2023-04-03T13:05:58;18.53;;;11.60;;
8704;SDS011;4389;41.932;25.904;2023-04-03T13:08:28;23.10;;;13.03;;
8704;SDS011;4389;41.932;25.904;2023-04-03T13:10:58;20.77;;;11.60;;
8704;SDS011;4389;41.932;25.904;2023-04-03T13:13:28;18.87;;;11.43;;
8704;SDS011;4389;41.932;25.904;2023-04-03T13:15:55;20.77;;;11.70;;
8704;SDS011;4389;41.932;25.904;2023-04-03T13:18:23;28.43;;;13.87;;
8704;SDS011;4389;41.932;25.904;2023-04-03T13:20:51;21.40;;;12.73;;
8704;SDS011;4389;41.932;25.904;2023-04-03T13:23:20;22.80;;;10.47;;
8704;SDS011;4389;41.932;25.904;2023-04-03T13:25:50;28.83;;;13.33;;
8704;SDS011;4389;41.932;25.904;2023-04-03T13:28:18;28.80;;;14.00;;
8704;SDS011;4389;41.932;25.904;2023-04-03T13:30:55;27.27;;;11.43;;
8704;SDS011;4389;41.932;25.904;2023-04-03T13:33:26;16.93;;;10.00;;
8704;SDS011;4389;41.932;25.904;2023-04-03T13:35:57;19.43;;;10.40;;
8704;SDS011;4389;41.932;25.904;2023-04-03T13:38:27;21.90;;;11.80;;
8704;SDS011;4389;41.932;25.904;2023-04-03T13:41:00;19.13;;;10.93;;
8704;SDS011;4389;41.932;25.904;2023-04-03T13:43:30;23.03;;;10.83;;
8704;SDS011;4389;41.932;25.904;2023-04-03T13:46:01;17.80;;;10.63;;
8704;SDS011;4389;41.932;25.904;2023-04-03T13:48:38;26.87;;;11.37;;
8704;SDS011;4389;41.932;25.904;2023-04-03T13:51:17;18.33;;;10.60;;
8704;SDS011;4389;41.932;25.904;2023-04-03T13:53:47;17.40;;;9.50;;
8704;SDS011;4389;41.932;25.904;2023-04-03T13:56:19;21.17;;;11.27;;
8704;SDS011;4389;41.932;25.904;2023-04-03T13:58:59;15.47;;;9.60;;
8704;SDS011;4389;41.932;25.904;2023-04-03T14:01:33;18.77;;;9.23;;
8704;SDS011;4389;41.932;25.904;2023-04-03T14:04:10;20.20;;;10.73;;
8704;SDS011;4389;41.932;25.904;2023-04-03T14:06:40;20.57;;;10.83;;
8704;SDS011;4389;41.932;25.904;2023-04-03T14:09:06;30.03;;;12.43;;
8704;SDS011;4389;41.932;25.904;2023-04-03T14:11:35;36.07;;;12.30;;
8704;SDS011;4389;41.932;25.904;2023-04-03T14:14:05;17.70;;;10.40;;
8704;SDS011;4389;41.932;25.904;2023-04-03T14:16:38;34.97;;;11.77;;
8704;SDS011;4389;41.932;25.904;2023-04-03T14:19:07;23.40;;;11.60;;
8704;SDS011;4389;41.932;25.904;2023-04-03T14:21:43;25.47;;;11.40;;
8704;SDS011;4389;41.932;25.904;2023-04-03T14:24:10;18.50;;;9.70;;
8704;SDS011;4389;41.932;25.904;2023-04-03T14:26:39;16.30;;;9.80;;
8704;SDS011;4389;41.932;25.904;2023-04-03T14:29:06;15.83;;;9.97;;
8704;SDS011;4389;41.932;25.904;2023-04-03T14:31:36;18.57;;;10.80;;
8704;SDS011;4389;41.932;25.904;2023-04-03T14:34:03;17.27;;;9.83;;
8704;SDS011;4389;41.932;25.904;2023-04-03T14:36:30;21.03;;;10.63;;
8704;SDS011;4389;41.932;25.904;2023-04-03T14:38:58;24.80;;;11.57;;
8704;SDS011;4389;41.932;25.904;2023-04-03T14:41:26;21.70;;;11.53;;
8704;SDS011;4389;41.932;25.904;2023-04-03T14:43:55;17.87;;;11.27;;
8704;SDS011;4389;41.932;25.904;2023-04-03T14:46:23;16.63;;;10.77;;
8704;SDS011;4389;41.932;25.904;2023-04-03T14:48:52;16.83;;;10.30;;
8704;SDS011;4389;41.932;25.904;2023-04-03T14:51:20;17.17;;;9.73;;
8704;SDS011;4389;41.932;25.904;2023-04-03T14:53:47;16.17;;;10.80;;
8704;SDS011;4389;41.932;25.904;2023-04-03T14:56:16;13.30;;;9.33;;
8704;SDS011;4389;41.932;25.904;2023-04-03T14:58:47;15.60;;;11.30;;
8704;SDS011;4389;41.932;25.904;2023-04-03T15:01:17;17.37;;;11.00;;
8704;SDS011;4389;41.932;25.904;2023-04-03T15:03:44;19.83;;;11.03;;
8704;SDS011;4389;41.932;25.904;2023-04-03T15:06:11;15.60;;;11.17;;
8704;SDS011;4389;41.932;25.904;2023-04-03T15:08:39;19.90;;;9.53;;
8704;SDS011;4389;41.932;25.904;2023-04-03T15:11:08;12.83;;;9.33;;
8704;SDS011;4389;41.932;25.904;2023-04-03T15:13:35;18.03;;;10.10;;
8704;SDS011;4389;41.932;25.904;2023-04-03T15:16:03;13.63;;;9.60;;
8704;SDS011;4389;41.932;25.904;2023-04-03T15:18:34;17.17;;;10.43;;
8704;SDS011;4389;41.932;25.904;2023-04-03T15:21:04;13.70;;;9.93;;
8704;SDS011;4389;41.932;25.904;2023-04-03T15:23:31;16.77;;;9.87;;
8704;SDS011;4389;41.932;25.904;2023-04-03T15:25:58;15.03;;;9.63;;